Time;durP1;ratioP1;P1;durP2;ratioP2;P2;SDS_P1;SDS_P2;PMS_P1;PMS_P2;Temp;Humidity;BMP_temperature;BMP_pressure;BME280_temperature;BME280_humidity;BME280_pressure;Samples;Min_cycle;Max_cycle;Signal;HPM_P1;HPM_P2
2023/03/24 00:00:12;;;;;;;10.38;2.50;;;7.70;99.90;;;;;;4983321;28;20751;-94
2023/03/24 00:02:40;;;;;;;;;;;7.70;99.90;;;;;;4963423;28;20037;-94
2023/03/24 00:05:07;;;;;;;12.45;3.33;;;7.70;99.90;;;;;;4960488;28;20351;-94
2023/03/24 00:07:33;;;;;;;7.45;2.15;;;7.60;99.90;;;;;;4960662;28;20023;-93
2023/03/24 00:09:59;;;;;;;8.63;2.10;;;7.60;99.90;;;;;;4962966;28;20111;-95
2023/03/24 00:12:25;;;;;;;11.35;3.42;;;7.60;99.90;;;;;;4965739;28;20031;-94
2023/03/24 00:14:53;;;;;;;16.98;3.30;;;7.50;99.90;;;;;;4962251;28;20038;-95
2023/03/24 00:17:24;;;;;;;15.30;2.45;;;7.50;99.90;;;;;;4962508;28;20046;-94
2023/03/24 00:19:50;;;;;;;;;;;7.40;99.90;;;;;;4963071;28;20027;-94
2023/03/24 00:22:16;;;;;;;13.50;2.30;;;7.40;99.90;;;;;;4978671;28;19952;-95
2023/03/24 00:24:45;;;;;;;13.60;3.53;;;7.30;99.90;;;;;;4961801;28;20026;-96
2023/03/24 00:27:16;;;;;;;14.27;2.20;;;7.30;99.90;;;;;;4963886;28;20031;-94
2023/03/24 00:29:42;;;;;;;8.20;1.80;;;7.30;99.90;;;;;;4948717;28;20384;-95
2023/03/24 00:32:08;;;;;;;14.35;3.08;;;7.20;99.90;;;;;;4962454;28;20038;-94
2023/03/24 00:34:37;;;;;;;16.95;2.53;;;7.20;99.90;;;;;;4963779;28;20029;-94
2023/03/24 00:37:04;;;;;;;13.55;3.08;;;7.20;99.90;;;;;;4965334;28;20035;-94
2023/03/24 00:39:29;;;;;;;15.65;2.90;;;7.20;99.90;;;;;;4968826;28;20027;-92
2023/03/24 00:41:57;;;;;;;18.55;2.83;;;7.10;99.90;;;;;;4981137;28;20038;-92
2023/03/24 00:44:24;;;;;;;19.38;2.92;;;7.10;99.90;;;;;;4979491;28;20026;-91
2023/03/24 00:46:54;;;;;;;17.40;1.98;;;7.10;99.90;;;;;;4973148;28;20074;-94
2023/03/24 00:49:41;;;;;;;23.50;2.72;;;7.10;99.90;;;;;;4974148;28;20027;-94
2023/03/24 00:52:09;;;;;;;14.32;2.63;;;7.10;99.90;;;;;;4975708;28;20058;-95
2023/03/24 00:54:38;;;;;;;20.50;3.40;;;7.00;99.90;;;;;;4976404;28;20499;-93
2023/03/24 00:57:06;;;;;;;15.70;2.10;;;7.00;99.90;;;;;;4992831;28;20054;-93
2023/03/24 00:59:41;;;;;;;18.33;2.35;;;7.00;99.90;;;;;;4980020;28;20120;-88
2023/03/24 01:02:10;;;;;;;18.85;2.20;;;7.00;99.90;;;;;;4979392;28;20050;-93
2023/03/24 01:04:38;;;;;;;16.77;2.60;;;7.00;99.90;;;;;;4979546;28;20019;-96
2023/03/24 01:07:06;;;;;;;20.23;3.97;;;7.00;99.90;;;;;;4978183;28;20037;-94
2023/03/24 01:09:35;;;;;;;15.55;2.42;;;7.00;99.90;;;;;;4976539;28;20095;-93
2023/03/24 01:12:02;;;;;;;18.48;3.83;;;7.00;99.90;;;;;;4973171;28;20098;-93
2023/03/24 01:14:32;;;;;;;17.52;3.40;;;7.00;99.90;;;;;;4977207;28;20042;-95
2023/03/24 01:16:59;;;;;;;16.88;2.67;;;7.00;99.90;;;;;;4994900;28;20035;-96
2023/03/24 01:19:25;;;;;;;14.68;2.17;;;7.00;99.90;;;;;;4991487;28;20045;-92
2023/03/24 01:21:53;;;;;;;13.68;2.42;;;7.00;99.90;;;;;;4979173;28;20042;-91
2023/03/24 01:24:24;;;;;;;18.05;2.92;;;7.00;99.90;;;;;;4979640;28;20025;-91
2023/03/24 01:26:50;;;;;;;15.43;2.83;;;7.00;99.90;;;;;;4979229;28;20183;-94
2023/03/24 01:29:16;;;;;;;15.25;3.13;;;6.90;99.90;;;;;;4971478;28;20037;-93
2023/03/24 01:31:41;;;;;;;13.57;2.97;;;6.90;99.90;;;;;;4978102;28;20058;-89
2023/03/24 01:34:07;;;;;;;18.67;2.60;;;6.90;99.90;;;;;;4980398;28;20010;-91
2023/03/24 01:36:33;;;;;;;16.13;2.75;;;6.80;99.90;;;;;;4980024;28;20050;-92
2023/03/24 01:39:00;;;;;;;21.15;2.50;;;6.80;99.90;;;;;;4977374;28;20057;-94
2023/03/24 01:41:36;;;;;;;12.93;2.97;;;6.80;99.90;;;;;;4979399;28;20062;-94
2023/03/24 01:44:29;;;;;;;19.30;2.70;;;6.80;99.90;;;;;;4996457;28;20026;-94
2023/03/24 01:46:56;;;;;;;18.77;2.78;;;6.80;99.90;;;;;;4977679;28;20038;-94
2023/03/24 01:49:25;;;;;;;23.63;4.50;;;6.80;99.90;;;;;;4995552;28;20033;-94
2023/03/24 01:51:55;;;;;;;14.70;3.42;;;6.80;99.90;;;;;;4997607;28;20046;-93
2023/03/24 01:54:34;;;;;;;17.43;2.77;;;6.80;99.90;;;;;;4980401;28;20026;-93
2023/03/24 01:57:17;;;;;;;21.20;3.58;;;6.80;99.90;;;;;;4977077;28;20111;-94
2023/03/24 01:59:47;;;;;;;19.23;2.70;;;6.80;99.90;;;;;;4968750;28;20429;-96
2023/03/24 02:02:13;;;;;;;12.88;2.08;;;6.70;99.90;;;;;;4968319;28;20045;-92
2023/03/24 02:04:47;;;;;;;15.30;2.65;;;6.70;99.90;;;;;;4971968;28;20023;-96
2023/03/24 02:07:28;;;;;;;19.85;2.92;;;6.70;99.90;;;;;;4978648;28;20026;-92
2023/03/24 02:09:54;;;;;;;20.10;2.95;;;6.70;99.90;;;;;;4977891;28;20042;-94
2023/03/24 02:12:20;;;;;;;16.35;3.35;;;6.70;99.90;;;;;;4977983;28;20015;-92
2023/03/24 02:14:46;;;;;;;22.38;3.00;;;6.70;99.90;;;;;;4994815;28;20026;-94
2023/03/24 02:17:45;;;;;;;20.73;3.45;;;6.70;99.90;;;;;;4978113;28;20042;-95
2023/03/24 02:20:51;;;;;;;15.18;3.10;;;6.70;99.90;;;;;;4948878;28;20046;-95
2023/03/24 02:23:55;;;;;;;19.08;2.95;;;6.70;99.90;;;;;;4980517;28;20058;-94
2023/03/24 02:26:30;;;;;;;29.42;4.18;;;6.70;99.90;;;;;;4940636;28;20039;-96
2023/03/24 02:29:20;;;;;;;15.63;2.60;;;6.70;99.90;;;;;;4978540;28;20221;-93
2023/03/24 02:32:23;;;;;;;18.88;5.35;;;6.70;99.90;;;;;;4979342;28;20030;-95
2023/03/24 02:35:20;;;;;;;22.45;3.10;;;6.60;99.90;;;;;;4972123;28;20057;-95
2023/03/24 02:38:08;;;;;;;21.77;2.67;;;6.70;99.90;;;;;;4967850;28;20046;-96
2023/03/24 02:41:00;;;;;;;25.85;3.40;;;6.70;99.90;;;;;;4976599;28;20023;-94
2023/03/24 02:43:51;;;;;;;19.50;3.03;;;6.70;99.90;;;;;;4967792;28;20105;-92
2023/03/24 02:46:33;;;;;;;19.05;2.88;;;6.70;99.90;;;;;;4976567;28;20030;-93
2023/03/24 02:49:25;;;;;;;19.05;2.50;;;6.70;99.90;;;;;;4975304;28;20098;-95
2023/03/24 02:51:54;;;;;;;26.35;4.43;;;6.70;99.90;;;;;;4965637;28;20050;-95
2023/03/24 02:54:47;;;;;;;23.75;2.70;;;6.60;99.90;;;;;;4971372;28;20045;-94
2023/03/24 02:57:54;;;;;;;19.58;3.25;;;6.70;99.90;;;;;;4985385;28;20047;-96
2023/03/24 03:00:29;;;;;;;13.43;2.83;;;6.70;99.90;;;;;;4891503;29;20029;-93
2023/03/24 03:03:18;;;;;;;20.08;3.38;;;6.70;99.90;;;;;;4876992;29;20033;-95
2023/03/24 03:05:57;;;;;;;21.77;2.30;;;6.70;99.90;;;;;;4874166;29;20017;-96
2023/03/24 03:08:25;;;;;;;18.20;2.97;;;6.70;99.90;;;;;;4875926;29;20061;-94
2023/03/24 03:10:53;;;;;;;25.08;3.80;;;6.70;99.90;;;;;;4881601;29;20037;-95
2023/03/24 03:13:26;;;;;;;19.40;2.50;;;6.70;99.90;;;;;;4880929;29;20029;-94
2023/03/24 03:15:56;;;;;;;23.90;4.35;;;6.70;99.90;;;;;;4880394;29;20041;-95
2023/03/24 03:18:48;;;;;;;18.55;3.15;;;6.70;99.90;;;;;;4878236;29;20068;-93
2023/03/24 03:21:17;;;;;;;15.70;3.40;;;6.70;99.90;;;;;;4874726;29;20039;-95
2023/03/24 03:24:04;;;;;;;16.50;3.33;;;6.70;99.90;;;;;;4912382;29;20044;-94
2023/03/24 03:26:31;;;;;;;27.45;3.20;;;6.70;99.90;;;;;;4896839;29;20044;-95
2023/03/24 03:29:20;;;;;;;16.60;2.53;;;6.70;99.90;;;;;;4894735;29;20037;-93
2023/03/24 03:32:06;;;;;;;24.33;2.75;;;6.70;99.90;;;;;;4899379;29;20028;-94
2023/03/24 03:34:55;;;;;;;16.15;2.03;;;6.70;99.90;;;;;;4958956;28;20035;-94
2023/03/24 03:37:53;;;;;;;12.68;2.05;;;6.70;99.90;;;;;;4995904;28;20041;-95
2023/03/24 03:40:36;;;;;;;25.02;2.50;;;6.70;99.90;;;;;;4983175;28;20038;-94
2023/03/24 03:43:04;;;;;;;12.35;1.67;;;6.70;99.90;;;;;;5001351;28;20049;-95
2023/03/24 03:45:32;;;;;;;12.20;1.88;;;6.80;99.90;;;;;;4986248;28;20030;-90
2023/03/24 03:47:58;;;;;;;17.98;2.70;;;6.80;99.90;;;;;;5020365;28;20015;-92
2023/03/24 03:50:24;;;;;;;13.20;1.95;;;6.80;99.90;;;;;;5002744;28;20050;-95
2023/03/24 03:52:51;;;;;;;18.23;2.20;;;6.80;99.90;;;;;;5003483;28;20049;-93
2023/03/24 03:55:18;;;;;;;16.10;2.35;;;6.80;99.90;;;;;;5003413;28;20022;-93
2023/03/24 03:57:49;;;;;;;24.60;4.65;;;6.80;99.90;;;;;;5019446;28;20054;-95
2023/03/24 04:00:21;;;;;;;25.30;2.17;;;6.80;99.90;;;;;;5002986;28;20033;-96
2023/03/24 04:02:51;;;;;;;12.55;2.40;;;6.90;99.90;;;;;;5003178;28;20027;-93
2023/03/24 04:05:27;;;;;;;19.90;2.47;;;6.90;99.90;;;;;;5001463;28;20089;-92
2023/03/24 04:08:04;;;;;;;19.65;2.42;;;6.90;99.90;;;;;;5002980;28;20034;-94
2023/03/24 04:10:42;;;;;;;15.65;1.90;;;6.80;99.90;;;;;;5002397;28;20026;-95
2023/03/24 04:13:27;;;;;;;21.08;2.60;;;6.80;99.90;;;;;;5002241;28;20034;-93
2023/03/24 04:16:36;;;;;;;16.50;2.05;;;6.80;99.90;;;;;;5002797;28;20038;-92
2023/03/24 04:19:19;;;;;;;11.50;2.20;;;6.80;99.90;;;;;;4920880;29;20028;-93
2023/03/24 04:22:03;;;;;;;16.95;2.20;;;6.80;99.90;;;;;;4905135;29;20044;-95
2023/03/24 04:24:53;;;;;;;26.45;3.45;;;6.80;99.90;;;;;;4904956;29;20025;-95
2023/03/24 04:28:06;;;;;;;14.57;2.93;;;6.80;99.90;;;;;;4903779;29;20057;-96
2023/03/24 04:30:39;;;;;;;16.05;1.92;;;6.80;99.90;;;;;;4845416;29;20034;-95
2023/03/24 04:33:21;;;;;;;20.83;2.67;;;6.80;99.90;;;;;;4846165;29;20033;-93
2023/03/24 04:36:00;;;;;;;15.05;2.20;;;6.80;99.90;;;;;;4845656;29;20048;-95
2023/03/24 04:38:27;;;;;;;23.83;2.40;;;6.80;99.90;;;;;;4844673;29;20065;-96
2023/03/24 04:40:55;;;;;;;14.77;2.30;;;6.80;99.90;;;;;;4845378;29;20038;-94
2023/03/24 04:43:25;;;;;;;13.02;2.60;;;6.80;99.90;;;;;;4846422;29;20270;-95
2023/03/24 04:45:56;;;;;;;21.58;2.80;;;6.80;99.90;;;;;;4844898;29;20049;-96
2023/03/24 04:48:24;;;;;;;17.83;2.33;;;6.80;99.90;;;;;;4846160;29;20069;-95
2023/03/24 04:50:56;;;;;;;25.45;3.53;;;6.80;99.90;;;;;;4846399;29;20066;-95
2023/03/24 04:53:42;;;;;;;16.88;2.25;;;6.80;99.90;;;;;;4913647;29;20043;-94
2023/03/24 04:56:51;;;;;;;16.75;3.58;;;6.80;99.90;;;;;;4923788;29;20127;-90
2023/03/24 04:59:17;;;;;;;16.50;2.13;;;6.80;99.90;;;;;;4919014;29;20031;-91
2023/03/24 05:01:49;;;;;;;16.52;2.50;;;6.80;99.90;;;;;;4973447;28;20040;-93
2023/03/24 05:04:20;;;;;;;18.17;2.38;;;6.80;99.90;;;;;;5000757;28;20097;-87
2023/03/24 05:06:48;;;;;;;14.70;2.58;;;6.80;99.90;;;;;;5000485;28;20207;-93
2023/03/24 05:09:16;;;;;;;19.45;2.55;;;6.80;99.90;;;;;;5000447;28;20021;-96
2023/03/24 05:11:44;;;;;;;21.80;2.40;;;6.70;99.90;;;;;;5000994;28;20022;-92
2023/03/24 05:14:10;;;;;;;15.57;2.30;;;6.80;99.90;;;;;;5000981;28;20015;-92
2023/03/24 05:16:36;;;;;;;14.85;2.25;;;6.80;99.90;;;;;;4992497;28;20061;-92
2023/03/24 05:19:02;;;;;;;11.02;1.92;;;6.80;99.90;;;;;;4978209;28;20106;-94
2023/03/24 05:21:30;;;;;;;16.88;2.65;;;6.80;99.90;;;;;;4979464;28;20030;-94
2023/03/24 05:23:56;;;;;;;25.35;3.47;;;6.70;99.90;;;;;;4978477;28;20026;-93
2023/03/24 05:26:22;;;;;;;21.88;3.25;;;6.70;99.90;;;;;;4979152;28;20134;-92
2023/03/24 05:28:47;;;;;;;16.73;2.40;;;6.70;99.90;;;;;;4979177;28;20062;-94
2023/03/24 05:31:13;;;;;;;18.02;2.13;;;6.60;99.90;;;;;;4976309;28;20062;-94
2023/03/24 05:33:39;;;;;;;16.50;2.75;;;6.60;99.90;;;;;;4973886;28;20069;-95
2023/03/24 05:36:05;;;;;;;19.10;2.10;;;6.50;99.90;;;;;;4975786;28;20054;-92
2023/03/24 05:38:32;;;;;;;19.70;3.72;;;6.50;99.90;;;;;;4978409;28;20034;-94
2023/03/24 05:40:59;;;;;;;19.35;1.60;;;6.50;99.90;;;;;;4976507;28;20046;-95
2023/03/24 05:43:45;;;;;;;6.75;1.67;;;6.50;99.90;;;;;;4977664;28;20061;-95
2023/03/24 05:46:10;;;;;;;17.73;2.13;;;6.50;99.90;;;;;;4974997;28;20102;-94
2023/03/24 05:48:36;;;;;;;9.02;1.67;;;6.50;99.90;;;;;;4975954;28;20050;-92
2023/03/24 05:51:02;;;;;;;15.05;2.70;;;6.50;99.90;;;;;;4972359;28;20105;-95
2023/03/24 05:53:30;;;;;;;9.75;2.60;;;6.50;99.90;;;;;;4970972;28;20062;-95
2023/03/24 05:55:57;;;;;;;12.82;1.90;;;6.50;99.90;;;;;;4968152;28;20046;-95
2023/03/24 05:58:23;;;;;;;16.33;1.90;;;6.60;99.90;;;;;;4971210;28;20072;-94
2023/03/24 06:00:49;;;;;;;10.15;2.00;;;6.60;99.90;;;;;;4993831;28;20007;-95
2023/03/24 06:03:16;;;;;;;17.58;2.30;;;6.60;99.90;;;;;;4977574;28;20027;-95
2023/03/24 06:05:44;;;;;;;24.92;5.07;;;6.60;99.90;;;;;;4975176;28;20045;-95
2023/03/24 06:08:10;;;;;;;10.57;1.60;;;6.60;99.90;;;;;;4979466;28;20010;-92
2023/03/24 06:10:36;;;;;;;14.43;2.53;;;6.70;99.90;;;;;;4995990;28;20050;-94
2023/03/24 06:13:02;;;;;;;8.95;1.35;;;6.70;99.90;;;;;;4976547;28;20035;-93
2023/03/24 06:15:29;;;;;;;11.13;1.70;;;6.70;99.90;;;;;;4975360;28;20113;-95
2023/03/24 06:17:55;;;;;;;12.25;1.45;;;6.70;99.90;;;;;;4976341;28;20057;-93
2023/03/24 06:20:21;;;;;;;16.38;2.22;;;6.80;99.90;;;;;;4976520;28;20038;-93
2023/03/24 06:22:47;;;;;;;19.13;2.13;;;6.80;99.90;;;;;;4978088;28;20031;-93
2023/03/24 06:25:15;;;;;;;8.98;1.20;;;6.80;99.90;;;;;;4976650;28;20010;-93
2023/03/24 06:27:45;;;;;;;10.20;1.63;;;6.80;99.90;;;;;;4977953;28;20046;-96
2023/03/24 06:30:15;;;;;;;10.73;1.60;;;6.80;99.90;;;;;;4976985;28;20027;-94
2023/03/24 06:32:45;;;;;;;16.77;3.40;;;6.80;99.90;;;;;;4978780;28;20019;-95
2023/03/24 06:35:11;;;;;;;12.93;2.33;;;6.80;99.90;;;;;;4976712;28;20046;-95
2023/03/24 06:37:37;;;;;;;12.68;2.08;;;6.80;99.90;;;;;;4979861;28;20041;-95
2023/03/24 06:40:09;;;;;;;10.30;1.63;;;6.90;99.90;;;;;;4975286;28;20027;-96
2023/03/24 06:42:35;;;;;;;15.15;1.38;;;6.90;99.90;;;;;;4974221;28;20045;-95
2023/03/24 06:45:00;;;;;;;6.32;1.50;;;6.90;99.90;;;;;;4970348;28;20680;-94
2023/03/24 06:47:26;;;;;;;15.02;1.92;;;6.90;99.90;;;;;;4959952;28;20481;-95
2023/03/24 06:49:52;;;;;;;15.40;1.95;;;7.00;99.90;;;;;;4960808;28;20031;-94
2023/03/24 06:52:17;;;;;;;13.18;1.73;;;7.00;99.90;;;;;;4960580;28;20104;-95
2023/03/24 06:54:43;;;;;;;15.77;1.80;;;7.00;99.90;;;;;;4958429;28;20023;-94
2023/03/24 06:57:10;;;;;;;6.78;1.20;;;7.00;99.90;;;;;;4976155;28;20086;-94
2023/03/24 06:59:36;;;;;;;7.93;1.40;;;7.00;99.90;;;;;;4958929;28;20031;-96
2023/03/24 07:02:04;;;;;;;11.45;1.77;;;7.00;99.90;;;;;;4960532;28;20090;-95
2023/03/24 07:04:35;;;;;;;10.98;1.83;;;7.00;99.90;;;;;;4961020;28;20126;-95
2023/03/24 07:07:02;;;;;;;9.75;1.27;;;7.00;99.90;;;;;;4955550;28;20031;-94
2023/03/24 07:09:29;;;;;;;23.65;3.28;;;7.00;99.90;;;;;;4949570;28;20059;-96
2023/03/24 07:11:56;;;;;;;16.30;1.85;;;7.10;99.90;;;;;;4966153;28;20027;-94
2023/03/24 07:14:25;;;;;;;25.10;2.50;;;7.10;99.90;;;;;;4965357;28;20022;-95
2023/03/24 07:16:55;;;;;;;10.52;2.88;;;7.10;99.90;;;;;;4988637;28;20046;-95
2023/03/24 07:19:21;;;;;;;14.40;2.13;;;7.10;99.90;;;;;;4970372;28;20035;-93
2023/03/24 07:21:49;;;;;;;19.92;1.77;;;7.10;99.90;;;;;;4974460;28;20027;-94
2023/03/24 07:24:19;;;;;;;15.18;3.05;;;7.10;99.90;;;;;;4967226;28;20066;-94
2023/03/24 07:26:44;;;;;;;12.70;2.05;;;7.10;99.90;;;;;;4969974;28;20027;-95
2023/03/24 07:29:11;;;;;;;8.90;2.00;;;7.10;99.90;;;;;;4987340;28;20476;-95
2023/03/24 07:31:42;;;;;;;14.80;2.20;;;7.10;99.90;;;;;;4986311;28;20058;-94
2023/03/24 07:34:07;;;;;;;18.15;2.88;;;7.10;99.90;;;;;;4949656;29;20027;-94
2023/03/24 07:36:33;;;;;;;23.98;2.33;;;7.20;99.90;;;;;;4965393;28;20074;-95
2023/03/24 07:39:00;;;;;;;15.00;1.98;;;7.20;99.90;;;;;;4968718;28;20081;-95
2023/03/24 07:41:29;;;;;;;16.38;2.20;;;7.20;99.90;;;;;;4966398;28;20015;-94
2023/03/24 07:43:55;;;;;;;18.73;2.70;;;7.20;99.90;;;;;;4967168;28;20031;-95
2023/03/24 07:46:23;;;;;;;22.63;2.92;;;7.20;99.90;;;;;;4974937;28;20039;-95
2023/03/24 07:48:56;;;;;;;18.42;2.53;;;7.30;99.90;;;;;;4950556;28;20035;-94
2023/03/24 07:51:22;;;;;;;17.08;3.28;;;7.30;99.90;;;;;;4962304;28;20042;-95
2023/03/24 07:53:47;;;;;;;11.10;1.55;;;7.30;99.90;;;;;;4980077;28;20049;-94
2023/03/24 07:56:14;;;;;;;15.15;2.95;;;7.30;99.90;;;;;;4970385;28;20026;-93
2023/03/24 07:58:41;;;;;;;15.63;2.70;;;7.30;99.90;;;;;;4954411;28;20501;-93
2023/03/24 08:01:11;;;;;;;13.98;2.17;;;7.40;99.90;;;;;;4984533;28;20102;-94
2023/03/24 08:03:37;;;;;;;14.98;2.70;;;7.40;99.90;;;;;;4969363;28;20098;-93
2023/03/24 08:06:04;;;;;;;12.65;2.70;;;7.40;99.90;;;;;;4966867;28;20069;-94
2023/03/24 08:08:30;;;;;;;24.38;3.55;;;7.50;99.90;;;;;;4964435;28;20022;-94
2023/03/24 08:10:56;;;;;;;21.00;3.85;;;7.60;99.90;;;;;;4980933;28;20018;-96
2023/03/24 08:13:22;;;;;;;21.92;3.42;;;7.70;99.90;;;;;;4984431;28;20030;-95
2023/03/24 08:15:48;;;;;;;10.48;1.45;;;7.70;99.90;;;;;;4985114;28;20034;-95
2023/03/24 08:18:15;;;;;;;22.92;2.13;;;7.80;99.90;;;;;;4968981;28;20472;-94
2023/03/24 08:20:40;;;;;;;19.58;2.58;;;7.80;99.90;;;;;;4973689;28;20022;-94
2023/03/24 08:23:07;;;;;;;12.40;2.17;;;7.90;99.90;;;;;;4972329;28;20262;-94
2023/03/24 08:25:34;;;;;;;18.45;3.03;;;8.00;99.90;;;;;;4971547;28;20023;-92
2023/03/24 08:28:00;;;;;;;20.92;3.40;;;8.00;99.90;;;;;;4978689;28;20046;-91
2023/03/24 08:30:27;;;;;;;19.65;2.72;;;8.10;99.90;;;;;;4976594;28;20027;-95
2023/03/24 08:32:59;;;;;;;20.00;3.67;;;8.20;99.90;;;;;;4975928;28;20130;-96
2023/03/24 08:35:30;;;;;;;19.77;2.65;;;8.20;99.90;;;;;;4988661;28;20030;-96
2023/03/24 08:37:58;;;;;;;13.40;3.63;;;8.30;99.90;;;;;;4976157;28;20049;-96
2023/03/24 08:40:26;;;;;;;22.10;2.88;;;8.40;99.90;;;;;;4996683;28;20019;-94
2023/03/24 08:42:54;;;;;;;18.65;2.47;;;8.50;99.90;;;;;;4999807;28;20019;-96
2023/03/24 08:45:22;;;;;;;16.85;2.65;;;8.50;99.90;;;;;;4981984;28;20042;-96
2023/03/24 08:47:52;;;;;;;19.80;2.88;;;8.50;99.90;;;;;;4980264;28;20094;-93
2023/03/24 08:50:20;;;;;;;17.35;3.08;;;8.60;99.90;;;;;;4991640;28;20022;-95
2023/03/24 08:52:51;;;;;;;18.70;3.28;;;8.60;99.90;;;;;;4998188;28;20050;-91
2023/03/24 08:55:19;;;;;;;24.20;3.85;;;8.60;99.90;;;;;;4982832;28;20015;-91
2023/03/24 08:57:44;;;;;;;22.92;3.63;;;8.60;99.90;;;;;;4983542;28;20054;-91
2023/03/24 09:00:14;;;;;;;12.52;2.13;;;8.60;99.90;;;;;;4984190;28;20015;-92
2023/03/24 09:02:42;;;;;;;14.17;2.17;;;8.60;99.90;;;;;;4984225;28;20086;-89
2023/03/24 09:05:08;;;;;;;11.52;2.38;;;8.50;99.90;;;;;;5000695;28;20019;-89
2023/03/24 09:07:33;;;;;;;19.55;2.78;;;8.60;99.90;;;;;;5000591;28;20030;-87
2023/03/24 09:09:59;;;;;;;17.13;3.13;;;8.60;99.90;;;;;;5000803;28;20014;-91
2023/03/24 09:12:25;;;;;;;12.48;2.15;;;8.70;99.90;;;;;;4983782;28;20023;-88
2023/03/24 09:14:51;;;;;;;11.20;1.85;;;8.80;99.90;;;;;;4988108;28;20035;-94
2023/03/24 09:17:17;;;;;;;10.20;1.75;;;9.00;99.90;;;;;;4978279;28;20030;-96
2023/03/24 09:19:44;;;;;;;16.77;2.13;;;9.10;99.90;;;;;;4964257;28;20031;-94
2023/03/24 09:22:10;;;;;;;8.82;1.55;;;9.10;99.90;;;;;;4996429;28;20079;-96
2023/03/24 09:24:36;;;;;;;13.05;3.10;;;9.20;99.90;;;;;;4995694;28;20103;-96
2023/03/24 09:27:03;;;;;;;10.20;2.22;;;9.30;99.90;;;;;;4975962;28;20023;-94
2023/03/24 09:29:29;;;;;;;13.82;1.88;;;9.30;99.90;;;;;;4974705;28;20037;-95
2023/03/24 09:31:56;;;;;;;14.10;1.58;;;9.40;99.90;;;;;;4976086;28;20030;-96
2023/03/24 09:34:25;;;;;;;20.05;2.78;;;9.60;99.90;;;;;;4970688;28;20022;-95
2023/03/24 09:36:50;;;;;;;7.72;1.67;;;9.70;99.90;;;;;;4961983;28;20070;-95
2023/03/24 09:39:16;;;;;;;16.73;2.03;;;9.80;99.90;;;;;;4962577;28;20027;-94
2023/03/24 09:41:49;;;;;;;10.05;1.75;;;10.00;99.90;;;;;;4980747;28;20058;-95
2023/03/24 09:44:33;;;;;;;19.55;1.58;;;10.00;99.90;;;;;;4981005;28;20050;-95
2023/03/24 09:47:28;;;;;;;6.65;0.98;;;10.10;99.90;;;;;;4961689;28;20023;-94
2023/03/24 09:49:59;;;;;;;12.13;2.25;;;10.20;99.90;;;;;;4966298;28;20507;-92
2023/03/24 09:52:33;;;;;;;14.68;2.55;;;10.30;99.90;;;;;;4986948;28;20041;-94
2023/03/24 09:55:02;;;;;;;9.07;1.70;;;10.50;99.90;;;;;;4977221;28;20094;-92
2023/03/24 09:57:36;;;;;;;9.00;0.97;;;10.70;99.90;;;;;;4990099;28;20046;-93
2023/03/24 10:00:16;;;;;;;6.57;1.50;;;10.80;99.90;;;;;;4971315;28;20034;-93
2023/03/24 10:02:41;;;;;;;12.57;1.80;;;10.90;99.90;;;;;;4973854;28;20033;-95
2023/03/24 10:05:58;;;;;;;16.23;2.00;;;11.00;99.90;;;;;;4970941;28;20054;-94
2023/03/24 10:08:35;;;;;;;12.07;2.72;;;11.10;99.90;;;;;;4944114;28;20046;-94
2023/03/24 10:11:33;;;;;;;6.53;1.30;;;11.30;99.90;;;;;;4961784;28;20440;-96
2023/03/24 10:14:32;;;;;;;10.55;1.27;;;11.50;99.90;;;;;;4988452;28;20027;-96
2023/03/24 10:17:20;;;;;;;15.50;1.85;;;11.50;99.90;;;;;;4996160;28;20030;-95
2023/03/24 10:20:14;;;;;;;10.93;1.90;;;11.60;99.90;;;;;;4980309;28;20046;-93
2023/03/24 10:22:49;;;;;;;5.97;1.23;;;11.70;99.90;;;;;;4984539;28;20035;-96
2023/03/24 10:25:21;;;;;;;17.60;3.22;;;11.80;99.90;;;;;;4973294;28;20046;-95
2023/03/24 10:27:58;;;;;;;5.80;1.90;;;11.90;99.90;;;;;;4985567;28;20026;-95
2023/03/24 10:30:31;;;;;;;16.10;2.63;;;12.00;99.90;;;;;;4962824;28;20019;-95
2023/03/24 10:32:57;;;;;;;11.65;1.90;;;12.10;99.90;;;;;;4964282;28;20026;-95
2023/03/24 10:35:54;;;;;;;6.63;1.70;;;12.20;99.90;;;;;;4960832;28;20073;-95
2023/03/24 10:38:22;;;;;;;15.82;2.72;;;12.40;99.90;;;;;;4980641;28;20039;-95
2023/03/24 10:40:48;;;;;;;14.13;2.35;;;12.50;99.90;;;;;;4979212;28;20105;-96
2023/03/24 10:43:18;;;;;;;13.43;1.98;;;12.60;99.90;;;;;;4961945;28;20027;-95
2023/03/24 10:45:47;;;;;;;7.07;2.78;;;12.80;99.90;;;;;;4962136;28;20042;-95
2023/03/24 10:48:32;;;;;;;10.00;1.48;;;12.90;99.90;;;;;;4961094;28;20041;-94
2023/03/24 10:50:58;;;;;;;19.10;2.47;;;12.90;99.60;;;;;;4958477;28;20031;-96
2023/03/24 10:53:24;;;;;;;10.88;1.63;;;13.00;99.70;;;;;;4982037;28;20035;-96
2023/03/24 10:55:50;;;;;;;9.55;2.13;;;13.00;98.80;;;;;;4964091;28;20081;-96
2023/03/24 10:58:29;;;;;;;11.15;1.75;;;13.00;98.60;;;;;;4965062;28;20033;-96
2023/03/24 11:00:57;;;;;;;4.75;1.25;;;13.00;98.70;;;;;;4964111;28;20030;-96
2023/03/24 11:03:33;;;;;;;11.82;2.10;;;12.90;98.10;;;;;;4965518;28;20055;-93
2023/03/24 11:06:00;;;;;;;15.40;1.98;;;12.90;98.40;;;;;;4969836;28;20022;-94
2023/03/24 11:08:36;;;;;;;7.70;1.20;;;12.90;97.70;;;;;;4976542;28;20014;-96
2023/03/24 11:11:29;;;;;;;13.40;2.40;;;13.10;98.00;;;;;;4997271;28;20069;-95
2023/03/24 11:13:57;;;;;;;9.23;1.40;;;13.10;97.40;;;;;;4963107;28;20034;-95
2023/03/24 11:16:42;;;;;;;9.52;1.40;;;13.10;97.00;;;;;;4962608;28;20066;-96
2023/03/24 11:19:22;;;;;;;9.32;1.50;;;13.10;97.70;;;;;;4963060;28;20034;-95
2023/03/24 11:21:51;;;;;;;4.10;0.93;;;13.10;97.90;;;;;;4955743;28;20499;-96
2023/03/24 11:24:19;;;;;;;11.13;1.67;;;13.00;97.20;;;;;;4964281;28;20023;-94
2023/03/24 11:26:50;;;;;;;15.07;1.92;;;12.90;97.40;;;;;;4968034;28;20103;-95
2023/03/24 11:29:23;;;;;;;16.50;2.03;;;12.70;98.00;;;;;;4985597;28;20041;-94
2023/03/24 11:32:04;;;;;;;9.95;2.03;;;12.60;98.30;;;;;;4954289;28;20027;-95
2023/03/24 11:34:40;;;;;;;7.53;1.75;;;12.50;99.00;;;;;;4944894;29;20849;-95
2023/03/24 11:37:21;;;;;;;4.43;1.05;;;12.80;99.40;;;;;;4984312;28;20031;-96
2023/03/24 11:40:08;;;;;;;8.50;1.63;;;13.10;98.30;;;;;;4971066;28;20025;-96
2023/03/24 11:42:41;;;;;;;9.38;1.52;;;13.30;96.50;;;;;;4957248;29;20082;-95
2023/03/24 11:45:25;;;;;;;5.78;1.08;;;13.50;95.40;;;;;;4961131;28;20022;-88
2023/03/24 11:47:55;;;;;;;2.70;0.85;;;13.60;94.20;;;;;;4984636;28;20026;-92
2023/03/24 11:50:28;;;;;;;7.13;1.30;;;13.80;92.80;;;;;;5002082;28;20026;-91
2023/03/24 11:53:12;;;;;;;6.85;1.20;;;14.00;92.50;;;;;;4966044;28;20039;-88
2023/03/24 11:56:01;;;;;;;3.17;0.60;;;14.10;92.00;;;;;;4982802;28;20020;-89
2023/03/24 11:58:49;;;;;;;9.20;1.45;;;14.30;91.40;;;;;;4965757;28;20023;-93
2023/03/24 12:01:21;;;;;;;9.80;1.17;;;14.30;90.30;;;;;;4965019;28;20038;-90
2023/03/24 12:03:56;;;;;;;8.55;1.63;;;14.10;90.70;;;;;;4967198;28;20038;-89
2023/03/24 12:06:27;;;;;;;8.65;1.30;;;14.00;90.70;;;;;;4983452;28;20026;-91
2023/03/24 12:09:08;;;;;;;8.20;0.95;;;13.90;91.20;;;;;;4981369;28;20070;-91
2023/03/24 12:12:07;;;;;;;8.02;1.33;;;13.90;91.50;;;;;;4982299;28;20190;-90
2023/03/24 12:15:01;;;;;;;7.43;1.00;;;14.00;91.50;;;;;;4999163;28;20083;-90
2023/03/24 12:17:38;;;;;;;6.85;1.08;;;14.10;91.30;;;;;;4982791;28;20043;-90
2023/03/24 12:20:23;;;;;;;2.97;1.00;;;14.40;91.30;;;;;;4994842;28;20042;-95
2023/03/24 12:23:05;;;;;;;3.95;0.80;;;14.60;90.90;;;;;;4999572;28;20042;-91
2023/03/24 12:26:05;;;;;;;3.90;0.88;;;14.80;89.30;;;;;;4979749;28;20045;-95
2023/03/24 12:28:37;;;;;;;6.13;1.30;;;15.00;88.30;;;;;;4983314;28;20029;-92
2023/03/24 12:31:05;;;;;;;3.17;1.00;;;15.20;87.00;;;;;;4978690;28;20031;-93
2023/03/24 12:34:02;;;;;;;4.20;1.30;;;15.30;85.60;;;;;;4979380;28;20035;-93
2023/03/24 12:36:44;;;;;;;5.78;0.93;;;15.40;84.80;;;;;;4978591;28;20102;-93
2023/03/24 12:39:12;;;;;;;5.40;1.17;;;15.60;83.90;;;;;;4975868;28;20038;-94
2023/03/24 12:41:41;;;;;;;7.82;1.30;;;15.80;81.50;;;;;;4993743;28;20030;-95
2023/03/24 12:44:17;;;;;;;6.15;1.45;;;15.70;78.00;;;;;;4978108;28;20034;-94
2023/03/24 12:46:43;;;;;;;7.25;1.55;;;15.80;77.90;;;;;;4968626;28;20042;-95
2023/03/24 12:49:11;;;;;;;6.85;1.10;;;15.60;77.80;;;;;;4965977;28;20026;-95
2023/03/24 12:51:52;;;;;;;9.48;1.25;;;15.30;78.50;;;;;;4964406;28;20078;-95
2023/03/24 12:54:31;;;;;;;5.07;1.10;;;14.90;79.70;;;;;;4963715;28;20043;-95
2023/03/24 12:57:09;;;;;;;5.85;1.10;;;14.80;80.30;;;;;;4964502;28;20057;-96
2023/03/24 13:00:11;;;;;;;7.85;1.33;;;14.60;81.00;;;;;;4961961;28;20047;-94
2023/03/24 13:03:00;;;;;;;6.50;1.63;;;14.50;82.30;;;;;;4945745;28;20046;-95
2023/03/24 13:05:31;;;;;;;5.07;0.75;;;14.60;83.40;;;;;;4963015;28;20023;-94
2023/03/24 13:08:05;;;;;;;3.55;0.70;;;14.80;84.20;;;;;;4963954;28;20051;-94
2023/03/24 13:10:39;;;;;;;6.35;0.73;;;14.80;83.60;;;;;;4964007;28;20505;-95
2023/03/24 13:13:22;;;;;;;6.22;1.10;;;14.90;82.80;;;;;;4964763;28;20030;-95
2023/03/24 13:15:52;;;;;;;9.73;1.40;;;15.20;83.40;;;;;;4968353;28;20026;-96
2023/03/24 13:18:39;;;;;;;11.30;1.30;;;15.40;83.30;;;;;;4971724;28;20031;-94